createdAt,value
2018-11-12T00:00:12.599Z,87.49
2018-11-12T00:01:12.583Z,87.90
2018-11-12T00:02:12.584Z,87.49
2018-11-12T00:03:12.596Z,87.49
2018-11-12T00:04:12.550Z,87.49
2018-11-12T00:05:12.574Z,87.38
2018-11-12T00:06:12.532Z,87.90
2018-11-12T00:07:12.518Z,87.90
2018-11-12T00:08:12.504Z,87.70
2018-11-12T00:09:12.494Z,88.20
2018-11-12T00:10:12.508Z,88.41
2018-11-12T00:11:12.477Z,88.24
2018-11-12T00:12:12.464Z,88.51
2018-11-12T00:13:12.452Z,88.45
2018-11-12T00:14:12.442Z,88.51
2018-11-12T00:15:12.452Z,88.41
2018-11-12T00:16:12.448Z,88.41
2018-11-12T00:17:12.408Z,88.51
2018-11-12T00:18:12.425Z,89.17
2018-11-12T00:19:12.430Z,89.17
2018-11-12T00:20:12.413Z,88.24
2018-11-12T00:21:12.361Z,88.45
2018-11-12T00:22:12.352Z,88.45
2018-11-12T00:23:12.350Z,88.45
2018-11-12T00:24:12.354Z,88.35
2018-11-12T00:25:12.349Z,88.65
2018-11-12T00:26:12.315Z,89.26
2018-11-12T00:27:12.305Z,88.55
2018-11-12T00:28:12.290Z,89.17
2018-11-12T00:29:12.307Z,88.35
2018-11-12T00:30:12.265Z,88.55
2018-11-12T00:31:12.253Z,88.35
2018-11-12T00:32:12.278Z,88.55
2018-11-12T00:33:12.244Z,88.55
2018-11-12T00:34:12.220Z,88.35
2018-11-12T00:35:12.208Z,88.24
2018-11-12T00:36:12.205Z,89.17
2018-11-12T00:37:12.226Z,88.85
2018-11-12T00:38:12.210Z,88.45
2018-11-12T00:39:12.169Z,88.76
2018-11-12T00:40:12.176Z,88.96
2018-11-12T00:41:12.155Z,89.26
2018-11-12T00:42:12.154Z,88.85
2018-11-12T00:43:12.153Z,88.96
2018-11-12T00:44:12.111Z,88.85
2018-11-12T00:45:12.097Z,88.65
2018-11-12T00:46:12.085Z,88.65
2018-11-12T00:47:12.079Z,88.65
2018-11-12T00:48:12.102Z,88.96
2018-11-12T00:49:12.052Z,88.55
2018-11-12T00:50:12.048Z,89.17
2018-11-12T00:51:12.030Z,88.96
2018-11-12T00:52:12.021Z,88.65
2018-11-12T00:53:12.045Z,88.65
2018-11-12T00:54:11.998Z,88.76
2018-11-12T00:55:11.990Z,88.85
2018-11-12T00:56:11.983Z,88.85
2018-11-12T00:57:11.970Z,88.76
2018-11-12T00:58:12.025Z,88.76
2018-11-12T00:59:11.984Z,88.85
2018-11-12T01:00:11.932Z,89.17
2018-11-12T01:01:11.958Z,89.06
2018-11-12T01:02:11.908Z,89.17
2018-11-12T01:03:11.929Z,88.76
2018-11-12T01:04:11.950Z,88.85
2018-11-12T01:05:11.875Z,88.96
2018-11-12T01:06:11.871Z,88.96
2018-11-12T01:07:11.859Z,88.45
2018-11-12T01:08:11.880Z,88.55
2018-11-12T01:09:11.840Z,88.85
2018-11-12T01:10:11.853Z,88.96
2018-11-12T01:11:11.808Z,88.90
2018-11-12T01:12:11.802Z,88.65
2018-11-12T01:13:11.792Z,89.37
2018-11-12T01:14:11.780Z,89.17
2018-11-12T01:15:11.794Z,88.76
2018-11-12T01:16:11.806Z,88.96
2018-11-12T01:17:11.781Z,88.76
2018-11-12T01:18:11.735Z,88.96
2018-11-12T01:19:11.735Z,89.17
2018-11-12T01:20:11.723Z,88.85
2018-11-12T01:21:11.738Z,88.96
2018-11-12T01:22:11.707Z,88.96
2018-11-12T01:23:11.677Z,89.17
2018-11-12T01:24:11.674Z,88.96
2018-11-12T01:25:11.669Z,89.37
2018-11-12T01:26:11.688Z,88.85
2018-11-12T01:27:11.653Z,88.96
2018-11-12T01:28:11.642Z,89.17
2018-11-12T01:29:11.613Z,88.76
2018-11-12T01:30:11.605Z,88.85
2018-11-12T01:31:11.628Z,88.76
2018-11-12T01:32:11.587Z,88.85
2018-11-12T01:33:11.580Z,88.96
2018-11-12T01:34:11.557Z,88.96
2018-11-12T01:35:11.588Z,88.96
2018-11-12T01:36:11.538Z,89.20
2018-11-12T01:37:11.525Z,89.17
2018-11-12T01:38:11.551Z,89.61
2018-11-12T01:39:11.511Z,89.37
2018-11-12T01:40:11.520Z,89.92
2018-11-12T01:41:11.514Z,89.98
2018-11-12T01:42:11.525Z,89.67
2018-11-12T01:43:11.463Z,89.67
2018-11-12T01:44:11.479Z,89.37
2018-11-12T01:45:11.444Z,89.58
2018-11-12T01:46:11.463Z,89.67
2018-11-12T01:47:11.445Z,90.08
2018-11-12T01:48:11.442Z,89.78
2018-11-12T01:49:11.393Z,89.58
2018-11-12T01:50:11.383Z,89.98
2018-11-12T01:51:11.408Z,89.78
2018-11-12T01:52:11.367Z,89.58
2018-11-12T01:53:11.359Z,89.78
2018-11-12T01:54:11.392Z,89.88
2018-11-12T01:55:11.354Z,89.98
2018-11-12T01:56:11.318Z,89.98
2018-11-12T01:57:11.345Z,89.78
2018-11-12T01:58:11.297Z,89.88
2018-11-12T01:59:11.281Z,89.58
2018-11-12T02:00:11.308Z,89.58
2018-11-12T02:01:11.285Z,90.29
2018-11-12T02:02:11.259Z,89.98
2018-11-12T02:03:11.243Z,90.19
2018-11-12T02:04:11.235Z,89.47
2018-11-12T02:05:11.218Z,90.39
2018-11-12T02:06:11.240Z,90.39
2018-11-12T02:07:11.202Z,90.90
2018-11-12T02:08:11.225Z,90.70
2018-11-12T02:09:11.263Z,90.49
2018-11-12T02:10:11.171Z,90.59
2018-11-12T02:11:11.153Z,90.90
2018-11-12T02:12:11.136Z,91.20
2018-11-12T02:13:11.169Z,91.00
2018-11-12T02:14:11.121Z,91.00
2018-11-12T02:15:11.112Z,91.11
2018-11-12T02:16:11.097Z,91.05
2018-11-12T02:17:11.124Z,91.25
2018-11-12T02:18:11.142Z,90.74
2018-11-12T02:19:11.069Z,91.00
2018-11-12T02:20:11.062Z,90.94
2018-11-12T02:21:11.042Z,91.05
2018-11-12T02:22:11.057Z,90.49
2018-11-12T02:23:11.017Z,91.11
2018-11-12T02:24:11.044Z,91.11
2018-11-12T02:25:11.000Z,91.31
2018-11-12T02:26:10.986Z,90.64
2018-11-12T02:27:10.976Z,90.70
2018-11-12T02:28:10.961Z,90.49
2018-11-12T02:29:11.005Z,90.39
2018-11-12T02:30:10.948Z,90.59
2018-11-12T02:31:10.971Z,90.53
2018-11-12T02:32:10.922Z,90.74
2018-11-12T02:33:10.974Z,90.84
2018-11-12T02:34:10.975Z,90.53
2018-11-12T02:35:10.910Z,90.49
2018-11-12T02:36:10.880Z,90.64
2018-11-12T02:37:10.900Z,90.64
2018-11-12T02:38:10.852Z,90.53
2018-11-12T02:39:10.847Z,90.43
2018-11-12T02:40:10.832Z,91.15
2018-11-12T02:41:10.867Z,91.05
2018-11-12T02:42:10.821Z,91.15
2018-11-12T02:43:10.803Z,90.90
2018-11-12T02:44:10.786Z,91.00
2018-11-12T02:45:10.777Z,90.49
2018-11-12T02:46:10.807Z,90.84
2018-11-12T02:47:10.795Z,90.70
2018-11-12T02:48:10.747Z,90.49
2018-11-12T02:49:10.736Z,91.00
2018-11-12T02:50:10.800Z,90.90
2018-11-12T02:51:10.751Z,90.49
2018-11-12T02:52:10.703Z,90.29
2018-11-12T02:53:10.692Z,90.70
2018-11-12T02:54:10.723Z,90.59
2018-11-12T02:55:10.671Z,90.59
2018-11-12T02:56:10.659Z,90.49
2018-11-12T02:57:10.657Z,90.49
2018-11-12T02:58:10.746Z,90.70
2018-11-12T02:59:10.632Z,90.59
2018-11-12T03:00:10.608Z,90.59
2018-11-12T03:01:10.599Z,90.59
2018-11-12T03:02:10.592Z,90.70
2018-11-12T03:03:10.612Z,90.70
2018-11-12T03:04:10.575Z,90.59
2018-11-12T03:05:10.566Z,90.49
2018-11-12T03:06:10.545Z,90.70
2018-11-12T03:07:10.541Z,90.90
2018-11-12T03:08:10.556Z,91.11
2018-11-12T03:09:10.521Z,90.80
2018-11-12T03:10:10.499Z,90.90
2018-11-12T03:11:10.490Z,91.31
2018-11-12T03:12:10.509Z,91.11
2018-11-12T03:13:10.477Z,90.59
2018-11-12T03:14:10.538Z,90.39
2018-11-12T03:15:10.445Z,90.59
2018-11-12T03:16:10.469Z,90.70
2018-11-12T03:17:10.432Z,90.70
2018-11-12T03:18:10.416Z,90.70
2018-11-12T03:19:10.411Z,90.49
2018-11-12T03:20:10.430Z,90.39
2018-11-12T03:21:10.383Z,90.55
2018-11-12T03:22:10.371Z,90.59
2018-11-12T03:23:10.383Z,90.59
2018-11-12T03:24:10.356Z,90.70
2018-11-12T03:25:10.371Z,90.90
2018-11-12T03:26:10.333Z,90.86
2018-11-12T03:27:10.316Z,91.00
2018-11-12T03:28:10.321Z,90.80
2018-11-12T03:29:10.322Z,90.70
2018-11-12T03:30:10.362Z,91.16
2018-11-12T03:31:10.284Z,91.31
2018-11-12T03:32:10.286Z,90.86
2018-11-12T03:33:10.284Z,91.11
2018-11-12T03:34:10.237Z,91.82
2018-11-12T03:35:10.228Z,91.57
2018-11-12T03:36:10.215Z,91.06
2018-11-12T03:37:10.218Z,90.86
2018-11-12T03:38:10.233Z,90.75
2018-11-12T03:39:10.186Z,90.96
2018-11-12T03:40:10.177Z,90.75
2018-11-12T03:41:10.163Z,90.86
2018-11-12T03:42:10.150Z,91.06
2018-11-12T03:43:10.758Z,90.86
2018-11-12T03:44:10.128Z,90.75
2018-11-12T03:45:10.119Z,90.75
2018-11-12T03:46:10.106Z,91.06
2018-11-12T03:47:10.143Z,91.06
2018-11-12T03:48:10.085Z,91.06
2018-11-12T03:49:10.073Z,91.27
2018-11-12T03:50:10.064Z,91.27
2018-11-12T03:51:10.146Z,91.27
2018-11-12T03:52:10.073Z,91.78
2018-11-12T03:53:10.034Z,91.78
2018-11-12T03:54:10.018Z,91.67
2018-11-12T03:55:10.042Z,91.57
2018-11-12T03:56:09.994Z,91.78
2018-11-12T03:57:09.991Z,91.67
2018-11-12T03:58:09.972Z,91.57
2018-11-12T03:59:09.966Z,91.67
2018-11-12T04:00:10.044Z,91.57
2018-11-12T04:01:09.937Z,91.78
2018-11-12T04:02:09.927Z,91.57
2018-11-12T04:03:09.953Z,91.67
2018-11-12T04:04:09.905Z,91.57
2018-11-12T04:05:09.903Z,91.27
2018-11-12T04:06:09.913Z,91.37
2018-11-12T04:07:09.883Z,91.57
2018-11-12T04:08:09.911Z,91.67
2018-11-12T04:09:09.852Z,91.78
2018-11-12T04:10:09.851Z,91.67
2018-11-12T04:11:09.856Z,91.61
2018-11-12T04:12:09.840Z,91.31
2018-11-12T04:13:09.807Z,91.41
2018-11-12T04:14:09.811Z,91.16
2018-11-12T04:15:09.782Z,91.61
2018-11-12T04:16:09.823Z,91.67
2018-11-12T04:17:09.759Z,92.33
2018-11-12T04:18:09.755Z,92.29
2018-11-12T04:19:09.741Z,92.33
2018-11-12T04:20:09.766Z,91.82
2018-11-12T04:21:09.720Z,92.02
2018-11-12T04:22:09.708Z,92.08
2018-11-12T04:23:09.700Z,91.92
2018-11-12T04:24:09.680Z,91.72
2018-11-12T04:25:09.704Z,91.82
2018-11-12T04:26:09.669Z,92.02
2018-11-12T04:27:09.653Z,91.72
2018-11-12T04:28:09.640Z,91.72
2018-11-12T04:29:09.670Z,92.39
2018-11-12T04:30:09.620Z,92.54
2018-11-12T04:31:09.607Z,92.54
2018-11-12T04:32:09.615Z,92.08
2018-11-12T04:33:09.588Z,91.98
2018-11-12T04:34:09.606Z,92.13
2018-11-12T04:35:09.565Z,91.92
2018-11-12T04:36:09.552Z,92.23
2018-11-12T04:37:09.573Z,92.13
2018-11-12T04:38:09.535Z,92.29
2018-11-12T04:39:09.555Z,92.64
2018-11-12T04:40:09.529Z,92.74
2018-11-12T04:41:09.540Z,92.74
2018-11-12T04:42:09.489Z,92.54
2018-11-12T04:43:09.472Z,92.29
2018-11-12T04:44:09.461Z,92.74
2018-11-12T04:45:09.464Z,92.54
2018-11-12T04:46:09.470Z,92.54
2018-11-12T04:47:09.554Z,92.74
2018-11-12T04:48:09.429Z,92.84
2018-11-12T04:49:09.406Z,92.94
2018-11-12T04:50:09.396Z,92.64
2018-11-12T04:51:09.424Z,92.74
2018-11-12T04:52:09.371Z,92.84
2018-11-12T04:53:09.359Z,92.74
2018-11-12T04:54:09.354Z,92.59
2018-11-12T04:55:09.396Z,92.54
2018-11-12T04:56:09.364Z,93.15
2018-11-12T04:57:09.356Z,92.84
2018-11-12T04:58:09.310Z,92.84
2018-11-12T04:59:09.325Z,92.64
2018-11-12T05:00:09.294Z,92.84
2018-11-12T05:01:09.276Z,92.84
2018-11-12T05:02:09.454Z,92.84
2018-11-12T05:03:09.354Z,92.23
2018-11-12T05:04:09.241Z,92.74
2018-11-12T05:05:09.264Z,92.33
2018-11-12T05:06:09.263Z,92.84
2018-11-12T05:07:09.211Z,92.74
2018-11-12T05:08:09.205Z,92.33
2018-11-12T05:09:09.241Z,92.23
2018-11-12T05:10:09.177Z,92.33
2018-11-12T05:11:09.165Z,92.74
2018-11-12T05:12:09.190Z,92.84
2018-11-12T05:13:09.145Z,92.43
2018-11-12T05:14:09.140Z,92.84
2018-11-12T05:15:09.122Z,92.74
2018-11-12T05:16:09.111Z,92.84
2018-11-12T05:17:09.157Z,92.64
2018-11-12T05:18:09.085Z,93.55
2018-11-12T05:19:09.079Z,93.25
2018-11-12T05:20:09.094Z,93.35
2018-11-12T05:21:09.060Z,93.45
2018-11-12T05:22:09.098Z,93.55
2018-11-12T05:23:09.027Z,93.25
2018-11-12T05:24:09.043Z,93.66
2018-11-12T05:25:09.009Z,93.55
2018-11-12T05:26:09.003Z,93.71
2018-11-12T05:27:09.016Z,93.51
2018-11-12T05:28:09.019Z,93.62
2018-11-12T05:29:08.969Z,93.21
2018-11-12T05:30:08.961Z,93.10
2018-11-12T05:31:08.953Z,93.45
2018-11-12T05:32:08.944Z,93.55
2018-11-12T05:33:08.958Z,93.10
2018-11-12T05:34:08.914Z,92.90
2018-11-12T05:35:08.900Z,92.84
2018-11-12T05:36:08.893Z,92.64
2018-11-12T05:37:08.878Z,93.21
2018-11-12T05:38:08.972Z,93.51
2018-11-12T05:39:08.853Z,92.94
2018-11-12T05:40:08.866Z,93.00
2018-11-12T05:41:08.832Z,92.94
2018-11-12T05:42:08.821Z,92.74
2018-11-12T05:43:08.810Z,92.59
2018-11-12T05:44:08.855Z,92.49
2018-11-12T05:45:08.826Z,92.94
2018-11-12T05:46:08.791Z,92.54
2018-11-12T05:47:08.792Z,92.74
2018-11-12T05:48:08.757Z,92.80
2018-11-12T05:49:08.744Z,92.64
2018-11-12T05:50:21.881Z,92.84
2018-11-12T05:51:08.738Z,93.00
2018-11-12T05:52:08.746Z,92.74
2018-11-12T05:53:08.709Z,92.54
2018-11-12T05:54:08.687Z,92.64
2018-11-12T05:55:08.677Z,92.39
2018-11-12T05:56:08.667Z,92.54
2018-11-12T05:57:08.662Z,92.54
2018-11-12T05:58:08.669Z,92.49
2018-11-12T05:59:08.661Z,92.84
2018-11-12T06:00:08.621Z,92.43
2018-11-12T06:01:08.616Z,92.94
2018-11-12T06:02:08.640Z,92.49
2018-11-12T06:03:08.615Z,92.74
2018-11-12T06:04:08.578Z,93.05
2018-11-12T06:05:08.574Z,92.80
2018-11-12T06:06:08.563Z,92.64
2018-11-12T06:07:08.573Z,92.64
2018-11-12T06:08:08.535Z,92.94
2018-11-12T06:09:08.545Z,92.94
2018-11-12T06:10:08.510Z,92.94
2018-11-12T06:11:08.502Z,92.69
2018-11-12T06:12:08.503Z,92.90
2018-11-12T06:13:08.478Z,92.59
2018-11-12T06:14:08.496Z,92.54
2018-11-12T06:15:08.456Z,92.84
2018-11-12T06:16:08.448Z,92.64
2018-11-12T06:17:08.439Z,92.90
2018-11-12T06:18:08.466Z,92.43
2018-11-12T06:19:08.410Z,92.54
2018-11-12T06:20:08.425Z,92.80
2018-11-12T06:21:08.394Z,93.05
2018-11-12T06:22:08.388Z,92.94
2018-11-12T06:23:09.316Z,93.25
2018-11-12T06:24:08.359Z,93.55
2018-11-12T06:25:08.372Z,92.94
2018-11-12T06:26:08.349Z,92.94
2018-11-12T06:27:08.330Z,92.94
2018-11-12T06:28:08.313Z,93.15
2018-11-12T06:29:08.308Z,93.25
2018-11-12T06:30:08.313Z,93.25
2018-11-12T06:31:08.331Z,93.05
2018-11-12T06:32:08.266Z,93.55
2018-11-12T06:33:08.256Z,93.55
2018-11-12T06:34:08.244Z,93.55
2018-11-12T06:35:08.258Z,93.25
2018-11-12T06:36:08.227Z,93.35
2018-11-12T06:37:08.219Z,93.05
2018-11-12T06:38:08.204Z,93.25
2018-11-12T06:39:08.193Z,93.10
2018-11-12T06:40:08.185Z,92.84
2018-11-12T06:41:08.194Z,93.05
2018-11-12T06:42:08.181Z,92.94
2018-11-12T06:43:08.198Z,93.35
2018-11-12T06:44:08.136Z,93.70
2018-11-12T06:45:08.121Z,93.91
2018-11-12T06:46:08.149Z,93.60
2018-11-12T06:47:08.103Z,93.96
2018-11-12T06:48:08.091Z,94.27
2018-11-12T06:49:08.087Z,93.70
2018-11-12T06:50:08.083Z,94.37
2018-11-12T06:51:08.056Z,94.27
2018-11-12T06:52:08.088Z,94.32
2018-11-12T06:53:08.162Z,94.32
2018-11-12T06:54:08.025Z,94.37
2018-11-12T06:55:08.019Z,94.62
2018-11-12T06:56:08.003Z,94.58
2018-11-12T06:57:07.992Z,94.37
2018-11-12T06:58:08.112Z,94.27
2018-11-12T06:59:07.970Z,94.37
2018-11-12T07:00:07.955Z,94.27
2018-11-12T07:01:07.949Z,94.27
2018-11-12T07:02:07.945Z,94.37
2018-11-12T07:03:07.950Z,94.42
2018-11-12T07:04:07.912Z,94.32
2018-11-12T07:05:07.904Z,94.27
2018-11-12T07:06:07.928Z,94.37
2018-11-12T07:07:07.963Z,94.27
2018-11-12T07:08:07.872Z,94.37
2018-11-12T07:09:07.887Z,94.27
2018-11-12T07:10:07.855Z,94.58
2018-11-12T07:11:07.840Z,94.07
2018-11-12T07:12:07.826Z,94.17
2018-11-12T07:13:07.876Z,94.17
2018-11-12T07:14:07.830Z,94.07
2018-11-12T07:15:07.796Z,94.07
2018-11-12T07:16:07.781Z,94.07
2018-11-12T07:17:07.771Z,93.96
2018-11-12T07:18:07.760Z,94.07
2018-11-12T07:19:07.753Z,93.96
2018-11-12T07:20:07.766Z,94.07
2018-11-12T07:21:07.725Z,94.27
2018-11-12T07:22:08.320Z,94.37
2018-11-12T07:23:07.709Z,94.17
2018-11-12T07:24:07.693Z,94.37
2018-11-12T07:25:07.730Z,94.07
2018-11-12T07:26:07.675Z,94.07
2018-11-12T07:27:07.658Z,94.48
2018-11-12T07:28:07.646Z,94.48
2018-11-12T07:29:07.643Z,94.48
2018-11-12T07:30:07.647Z,94.48
2018-11-12T07:31:07.723Z,94.27
2018-11-12T07:32:07.603Z,94.48
2018-11-12T07:33:07.590Z,94.48
2018-11-12T07:34:07.583Z,94.37
2018-11-12T07:35:07.596Z,94.27
2018-11-12T07:36:07.560Z,94.27
2018-11-12T07:37:07.549Z,94.27
2018-11-12T07:38:07.548Z,94.37
2018-11-12T07:39:07.524Z,94.27
2018-11-12T07:40:07.514Z,94.07
2018-11-12T07:41:07.596Z,94.27
2018-11-12T07:42:07.629Z,94.37
2018-11-12T07:43:07.484Z,94.07
2018-11-12T07:44:07.477Z,94.27
2018-11-12T07:45:07.457Z,94.27
2018-11-12T07:46:07.471Z,94.27
2018-11-12T07:47:07.442Z,94.37
2018-11-12T07:48:07.426Z,94.23
2018-11-12T07:49:07.436Z,94.37
2018-11-12T07:50:07.403Z,94.12
2018-11-12T07:51:07.435Z,93.86
2018-11-12T07:52:07.383Z,93.55
2018-11-12T07:53:07.373Z,93.55
2018-11-12T07:54:07.360Z,93.55
2018-11-12T07:55:07.361Z,93.55
2018-11-12T07:56:07.418Z,93.55
2018-11-12T07:57:07.365Z,93.55
2018-11-12T07:58:07.320Z,93.76
2018-11-12T07:59:07.302Z,93.31
2018-11-12T08:00:07.296Z,93.55
2018-11-12T08:01:07.279Z,93.55
2018-11-12T08:02:07.350Z,93.35
2018-11-12T08:03:07.348Z,93.41
2018-11-12T08:04:07.246Z,93.45
2018-11-12T08:05:07.265Z,93.66
2018-11-12T08:06:07.249Z,93.92
2018-11-12T08:07:07.218Z,93.86
2018-11-12T08:08:07.234Z,93.82
2018-11-12T08:09:07.261Z,93.82
2018-11-12T08:10:07.188Z,93.31
2018-11-12T08:11:07.170Z,93.86
2018-11-12T08:12:07.301Z,94.02
2018-11-12T08:13:07.151Z,94.23
2018-11-12T08:14:07.173Z,94.23
2018-11-12T08:15:07.126Z,93.82
2018-11-12T08:16:07.117Z,94.02
2018-11-12T08:17:07.108Z,94.02
2018-11-12T08:18:07.090Z,93.51
2018-11-12T08:19:07.101Z,93.62
2018-11-12T08:20:07.085Z,93.92
2018-11-12T08:21:07.105Z,93.71
2018-11-12T08:22:07.046Z,94.43
2018-11-12T08:23:07.040Z,93.62
2018-11-12T08:24:07.109Z,93.92
2018-11-12T08:25:07.019Z,94.33
2018-11-12T08:26:07.008Z,94.43
2018-11-12T08:27:06.994Z,93.51
2018-11-12T08:28:06.982Z,94.12
2018-11-12T08:29:06.993Z,93.82
2018-11-12T08:30:07.202Z,93.62
2018-11-12T08:31:06.950Z,93.62
2018-11-12T08:32:06.943Z,93.51
2018-11-12T08:33:07.006Z,93.62
2018-11-12T08:34:06.917Z,93.62
2018-11-12T08:35:06.928Z,93.86
2018-11-12T08:36:06.925Z,93.62
2018-11-12T08:37:06.935Z,93.21
2018-11-12T08:38:06.874Z,93.31
2018-11-12T08:39:06.907Z,93.51
2018-11-12T08:40:06.935Z,94.02
2018-11-12T08:41:06.910Z,93.82
2018-11-12T08:42:06.823Z,94.23
2018-11-12T08:43:06.813Z,93.62
2018-11-12T08:44:06.806Z,94.43
2018-11-12T08:45:06.870Z,93.98
2018-11-12T08:46:06.876Z,93.92
2018-11-12T08:47:06.775Z,94.38
2018-11-12T08:48:06.766Z,94.29
2018-11-12T08:49:06.901Z,94.38
2018-11-12T08:50:06.892Z,94.29
2018-11-12T08:51:06.761Z,94.29
2018-11-12T08:52:06.785Z,94.29
2018-11-12T08:53:06.703Z,94.29
2018-11-12T08:54:06.692Z,94.38
2018-11-12T08:55:06.735Z,93.57
2018-11-12T08:56:06.701Z,94.08
2018-11-12T08:57:06.658Z,93.26
2018-11-12T08:58:06.660Z,93.47
2018-11-12T08:59:06.742Z,93.47
2018-11-12T09:00:06.626Z,93.52
2018-11-12T09:01:06.709Z,93.22
2018-11-12T09:02:06.599Z,93.43
2018-11-12T09:03:06.595Z,93.43
2018-11-12T09:04:06.640Z,93.12
2018-11-12T09:05:06.572Z,93.43
2018-11-12T09:06:06.671Z,93.52
2018-11-12T09:07:06.614Z,93.73
2018-11-12T09:08:06.537Z,93.18
2018-11-12T09:09:06.530Z,92.97
2018-11-12T09:10:06.570Z,93.07
2018-11-12T09:11:06.508Z,93.38
2018-11-12T09:12:06.529Z,92.46
2018-11-12T09:13:06.485Z,92.57
2018-11-12T09:14:06.475Z,92.57
2018-11-12T09:15:06.461Z,92.77
2018-11-12T09:16:06.449Z,92.67
2018-11-12T09:17:06.545Z,92.67
2018-11-12T09:18:06.429Z,92.57
2018-11-12T09:19:06.418Z,92.42
2018-11-12T09:20:06.407Z,91.55
2018-11-12T09:21:06.399Z,91.65
2018-11-12T09:22:06.410Z,91.75
2018-11-12T09:23:06.383Z,91.65
2018-11-12T09:24:06.373Z,91.65
2018-11-12T09:25:06.385Z,91.75
2018-11-12T09:26:06.344Z,91.65
2018-11-12T09:27:06.358Z,91.30
2018-11-12T09:28:06.341Z,92.36
2018-11-12T09:29:06.306Z,92.36
2018-11-12T09:30:06.292Z,91.35
2018-11-12T09:31:07.524Z,91.61
2018-11-12T09:32:06.280Z,91.81
2018-11-12T09:33:06.287Z,91.81
2018-11-12T09:34:06.254Z,91.50
2018-11-12T09:35:06.263Z,91.81
2018-11-12T09:36:06.229Z,91.50
2018-11-12T09:37:06.230Z,92.32
2018-11-12T09:38:06.317Z,92.18
2018-11-12T09:39:06.239Z,92.58
2018-11-12T09:40:06.184Z,92.27
2018-11-12T09:41:06.185Z,92.18
2018-11-12T09:42:06.163Z,92.38
2018-11-12T09:43:06.206Z,92.58
2018-11-12T09:44:06.210Z,92.58
2018-11-12T09:45:06.135Z,92.58
2018-11-12T09:46:06.164Z,92.58
2018-11-12T09:47:06.105Z,92.27
2018-11-12T09:48:06.097Z,92.27
2018-11-12T09:49:06.189Z,92.07
2018-11-12T09:50:06.103Z,92.27
2018-11-12T09:51:06.064Z,91.97
2018-11-12T09:52:06.052Z,91.52
2018-11-12T09:53:06.045Z,92.07
2018-11-12T09:54:06.119Z,91.56
2018-11-12T09:55:06.023Z,91.46
2018-11-12T09:56:06.031Z,91.42
2018-11-12T09:57:06.011Z,91.01
2018-11-12T09:58:05.985Z,91.05
2018-11-12T09:59:06.031Z,90.85
2018-11-12T10:00:06.017Z,90.85
2018-11-12T10:01:06.518Z,91.05
2018-11-12T10:02:06.441Z,90.95
2018-11-12T10:03:06.661Z,91.36
2018-11-12T10:04:06.890Z,91.46
2018-11-12T10:05:07.658Z,91.16
2018-11-12T10:06:07.708Z,91.05
2018-11-12T10:07:07.161Z,91.16
2018-11-12T10:08:07.695Z,91.66
2018-11-12T10:09:08.804Z,91.87
2018-11-12T10:10:10.082Z,91.77
2018-11-12T10:11:07.755Z,91.62
2018-11-12T10:12:09.152Z,91.42
2018-11-12T10:13:08.031Z,91.56
2018-11-12T10:14:08.732Z,91.66
2018-11-12T10:15:08.720Z,91.77
2018-11-12T10:16:09.018Z,92.07
2018-11-12T10:17:08.687Z,92.07
2018-11-12T10:18:09.209Z,91.26
2018-11-12T10:19:06.824Z,91.46
2018-11-12T10:20:05.773Z,91.62
2018-11-12T10:21:05.775Z,91.56
2018-11-12T10:22:05.726Z,91.66
2018-11-12T10:23:05.714Z,91.42
2018-11-12T10:24:05.708Z,91.22
2018-11-12T10:25:05.697Z,91.66
2018-11-12T10:26:05.726Z,92.07
2018-11-12T10:27:05.708Z,91.83
2018-11-12T10:28:05.658Z,91.72
2018-11-12T10:29:05.655Z,91.62
2018-11-12T10:30:05.640Z,92.13
2018-11-12T10:31:05.632Z,92.03
2018-11-12T10:32:05.648Z,92.03
2018-11-12T10:33:05.620Z,91.52
2018-11-12T10:34:05.665Z,91.42
2018-11-12T10:35:05.584Z,90.97
2018-11-12T10:36:05.574Z,91.01
2018-11-12T10:37:05.637Z,90.91
2018-11-12T10:38:05.566Z,90.91
2018-11-12T10:39:05.546Z,90.77
2018-11-12T10:40:05.533Z,91.07
2018-11-12T10:41:05.561Z,91.07
2018-11-12T10:42:05.514Z,91.22
2018-11-12T10:43:05.570Z,91.38
2018-11-12T10:44:05.494Z,91.38
2018-11-12T10:45:05.486Z,91.27
2018-11-12T10:46:05.464Z,91.38
2018-11-12T10:47:05.459Z,91.27
2018-11-12T10:48:05.525Z,91.48
2018-11-12T10:49:05.431Z,91.27
2018-11-12T10:50:05.486Z,91.17
2018-11-12T10:51:05.626Z,91.27
2018-11-12T10:52:05.400Z,90.97
2018-11-12T10:53:05.402Z,90.77
2018-11-12T10:54:05.561Z,90.56
2018-11-12T10:55:05.716Z,90.36
2018-11-12T10:56:05.423Z,90.56
2018-11-12T10:57:05.347Z,90.46
2018-11-12T10:58:05.338Z,90.62
2018-11-12T10:59:05.349Z,90.97
2018-11-12T11:00:05.320Z,90.56
2018-11-12T11:01:05.298Z,90.66
2018-11-12T11:02:05.289Z,90.52
2018-11-12T11:03:05.277Z,90.62
2018-11-12T11:04:05.273Z,90.72
2018-11-12T11:05:05.283Z,90.22
2018-11-12T11:06:05.283Z,90.42
2018-11-12T11:07:05.233Z,89.91
2018-11-12T11:08:05.285Z,90.72
2018-11-12T11:09:05.213Z,89.50
2018-11-12T11:10:05.202Z,89.40
2018-11-12T11:11:05.218Z,89.40
2018-11-12T11:12:05.180Z,90.01
2018-11-12T11:13:05.172Z,89.85
2018-11-12T11:14:05.241Z,89.44
2018-11-12T11:15:05.142Z,89.95
2018-11-12T11:16:05.167Z,89.91
2018-11-12T11:17:05.129Z,90.05
2018-11-12T11:18:05.114Z,89.54
2018-11-12T11:19:05.098Z,89.40
2018-11-12T11:20:05.099Z,89.61
2018-11-12T11:21:05.122Z,89.44
2018-11-12T11:22:05.097Z,89.50
2018-11-12T11:23:05.058Z,89.70
2018-11-12T11:24:05.052Z,89.61
2018-11-12T11:25:05.036Z,89.70
2018-11-12T11:26:05.023Z,90.01
2018-11-12T11:27:05.037Z,90.52
2018-11-12T11:28:05.027Z,89.40
2018-11-12T11:29:04.986Z,90.01
2018-11-12T11:30:04.993Z,89.09
2018-11-12T11:31:04.971Z,89.30
2018-11-12T11:32:04.962Z,89.54
2018-11-12T11:33:04.968Z,89.09
2018-11-12T11:34:04.940Z,89.85
2018-11-12T11:35:04.941Z,89.95
2018-11-12T11:36:04.912Z,89.95
2018-11-12T11:37:04.906Z,89.44
2018-11-12T11:38:04.912Z,89.64
2018-11-12T11:39:04.888Z,90.25
2018-11-12T11:40:04.898Z,90.52
2018-11-12T11:41:04.861Z,90.01
2018-11-12T11:42:04.846Z,90.31
2018-11-12T11:43:04.867Z,90.31
2018-11-12T11:44:04.833Z,90.31
2018-11-12T11:45:04.810Z,89.70
2018-11-12T11:46:04.983Z,89.91
2018-11-12T11:47:04.790Z,89.61
2018-11-12T11:48:04.875Z,90.11
2018-11-12T11:49:04.798Z,89.30
2018-11-12T11:50:04.794Z,89.20
2018-11-12T11:51:04.754Z,89.20
2018-11-12T11:52:04.739Z,89.91
2018-11-12T11:53:04.736Z,89.40
2018-11-12T11:54:04.720Z,89.61
2018-11-12T11:55:04.729Z,90.22
2018-11-12T11:56:04.701Z,89.61
2018-11-12T11:57:04.741Z,89.70
2018-11-12T11:58:04.671Z,90.31
2018-11-12T11:59:04.657Z,90.22
2018-11-12T12:00:04.670Z,90.31
2018-11-12T12:01:04.652Z,90.11
2018-11-12T12:02:04.644Z,90.72
2018-11-12T12:03:04.691Z,90.42
2018-11-12T12:04:04.643Z,90.52
2018-11-12T12:05:04.616Z,90.31
2018-11-12T12:06:04.584Z,90.62
2018-11-12T12:07:04.570Z,90.62
2018-11-12T12:08:04.567Z,90.62
2018-11-12T12:09:04.592Z,90.77
2018-11-12T12:10:04.601Z,91.23
2018-11-12T12:11:04.544Z,91.23
2018-11-12T12:12:04.519Z,91.13
2018-11-12T12:13:04.510Z,91.53
2018-11-12T12:14:04.502Z,90.62
2018-11-12T12:15:04.487Z,90.83
2018-11-12T12:16:04.498Z,91.03
2018-11-12T12:17:04.468Z,90.92
2018-11-12T12:18:04.452Z,91.33
2018-11-12T12:19:04.444Z,91.23
2018-11-12T12:20:04.445Z,91.13
2018-11-12T12:21:04.469Z,91.33
2018-11-12T12:22:04.409Z,90.92
2018-11-12T12:23:04.404Z,90.92
2018-11-12T12:24:04.382Z,91.09
2018-11-12T12:25:04.424Z,91.09
2018-11-12T12:26:04.475Z,90.99
2018-11-12T12:27:04.359Z,90.68
2018-11-12T12:28:04.339Z,91.29
2018-11-12T12:29:04.341Z,91.39
2018-11-12T12:30:04.324Z,90.27
2018-11-12T12:31:04.333Z,90.48
2018-11-12T12:32:04.292Z,90.68
2018-11-12T12:33:04.279Z,90.68
2018-11-12T12:34:04.315Z,90.48
2018-11-12T12:35:04.266Z,90.37
2018-11-12T12:36:04.387Z,90.17
2018-11-12T12:37:04.239Z,89.87
2018-11-12T12:38:04.231Z,89.66
2018-11-12T12:39:04.218Z,90.37
2018-11-12T12:40:04.201Z,90.27
2018-11-12T12:41:04.196Z,90.27
2018-11-12T12:42:04.228Z,90.07
2018-11-12T12:43:04.172Z,90.58
2018-11-12T12:44:04.208Z,89.46
2018-11-12T12:45:04.283Z,89.56
2018-11-12T12:46:04.183Z,89.66
2018-11-12T12:47:04.158Z,89.56
2018-11-12T12:48:04.125Z,89.26
2018-11-12T12:49:04.104Z,90.17
2018-11-12T12:50:04.091Z,90.31
2018-11-12T12:51:04.084Z,90.37
2018-11-12T12:52:04.098Z,89.87